createdAt,value
2023-02-06T00:01:19.338Z,102654.53
2023-02-06T00:04:24.266Z,102657.06
2023-02-06T00:07:26.489Z,102665.78
2023-02-06T00:10:29.155Z,102663.44
2023-02-06T00:13:31.456Z,102667.72
2023-02-06T00:16:35.734Z,102672.84
2023-02-06T00:19:39.413Z,102681.59
2023-02-06T00:22:41.778Z,102685.75
2023-02-06T00:25:43.929Z,102693.31
2023-02-06T00:28:46.462Z,102703.50
2023-02-06T00:31:49.529Z,102711.41
2023-02-06T00:34:51.809Z,102698.75
2023-02-06T00:37:55.210Z,102702.06
2023-02-06T00:40:58.084Z,102703.22
2023-02-06T00:44:02.092Z,102704.00
2023-02-06T00:47:04.843Z,102702.34
2023-02-06T00:50:06.925Z,102694.16
2023-02-06T00:53:09.745Z,102688.25
2023-02-06T00:56:11.910Z,102682.44
2023-02-06T00:59:14.206Z,102683.97
2023-02-06T01:02:17.762Z,102686.56
2023-02-06T01:05:21.140Z,102697.72
2023-02-06T01:08:23.289Z,102694.94
2023-02-06T01:11:26.345Z,102693.28
2023-02-06T01:14:28.608Z,102678.97
2023-02-06T01:17:33.123Z,102687.41
2023-02-06T01:20:35.589Z,102693.03
2023-02-06T01:23:39.675Z,102699.31
2023-02-06T01:26:42.345Z,102696.03
2023-02-06T01:29:44.709Z,102711.34
2023-02-06T01:32:46.976Z,102708.78
2023-02-06T01:35:56.598Z,102698.56
2023-02-06T01:39:02.335Z,102703.84
2023-02-06T01:42:05.200Z,102707.28
2023-02-06T01:45:34.987Z,102701.22
2023-02-06T01:48:37.628Z,102692.75
2023-02-06T01:51:40.237Z,102686.00
2023-02-06T01:54:46.053Z,102693.75
2023-02-06T01:57:48.157Z,102697.13
2023-02-06T02:00:50.252Z,102688.69
2023-02-06T02:03:56.583Z,102685.19
2023-02-06T02:07:19.344Z,102681.09
2023-02-06T02:10:23.105Z,102680.19
2023-02-06T02:13:25.050Z,102683.66
2023-02-06T02:16:40.812Z,102669.22
2023-02-06T02:20:01.691Z,102671.72
2023-02-06T02:23:30.498Z,102669.91
2023-02-06T02:26:55.433Z,102669.00
2023-02-06T02:30:31.498Z,102668.19
2023-02-06T02:34:04.984Z,102679.06
2023-02-06T02:37:48.446Z,102672.47
2023-02-06T02:41:14.551Z,102675.84
2023-02-06T02:44:37.365Z,102680.03
2023-02-06T02:47:57.709Z,102686.91
2023-02-06T02:51:01.480Z,102693.56
2023-02-06T02:54:04.086Z,102690.19
2023-02-06T02:57:14.991Z,102687.13
2023-02-06T03:00:19.144Z,102691.25
2023-02-06T03:03:25.426Z,102691.13
2023-02-06T03:07:02.591Z,102684.41
2023-02-06T03:10:32.372Z,102688.63
2023-02-06T03:14:14.746Z,102694.72
2023-02-06T03:17:26.221Z,102692.13
2023-02-06T03:20:31.314Z,102698.00
2023-02-06T03:23:38.805Z,102694.50
2023-02-06T03:26:43.558Z,102693.59
2023-02-06T03:29:49.188Z,102687.72
2023-02-06T03:32:57.283Z,102690.34
2023-02-06T03:35:59.542Z,102697.97
2023-02-06T03:39:02.138Z,102695.44
2023-02-06T03:42:08.805Z,102705.63
2023-02-06T03:45:22.373Z,102696.25
2023-02-06T03:48:30.521Z,102697.78
2023-02-06T03:51:46.081Z,102699.56
2023-02-06T03:54:54.628Z,102703.09
2023-02-06T03:58:03.786Z,102693.69
2023-02-06T04:01:07.207Z,102702.94
2023-02-06T04:04:09.944Z,102705.56
2023-02-06T04:07:18.488Z,102699.66
2023-02-06T04:10:20.770Z,102688.44
2023-02-06T04:13:22.824Z,102692.03
2023-02-06T04:16:25.333Z,102679.28
2023-02-06T04:19:27.488Z,102685.25
2023-02-06T04:22:29.659Z,102688.59
2023-02-06T04:25:34.518Z,102692.03
2023-02-06T04:28:36.974Z,102691.22
2023-02-06T04:31:41.112Z,102692.78
2023-02-06T04:34:43.867Z,102690.28
2023-02-06T04:37:53.285Z,102693.56
2023-02-06T04:40:55.339Z,102693.72
2023-02-06T04:43:57.775Z,102687.75
2023-02-06T04:47:00.742Z,102696.16
2023-02-06T04:50:04.564Z,102696.16
2023-02-06T04:53:08.118Z,102710.66
2023-02-06T04:56:14.712Z,102711.31
2023-02-06T04:59:17.175Z,102711.53
2023-02-06T05:02:19.489Z,102690.81
2023-02-06T05:05:21.474Z,102710.38
2023-02-06T05:08:23.711Z,102708.69
2023-02-06T05:11:26.455Z,102718.03
2023-02-06T05:14:28.788Z,102715.69
2023-02-06T05:17:30.830Z,102713.19
2023-02-06T05:20:33.603Z,102709.75
2023-02-06T05:23:36.009Z,102719.88
2023-02-06T05:26:38.963Z,102709.78
2023-02-06T05:29:43.409Z,102710.66
2023-02-06T05:32:48.416Z,102710.34
2023-02-06T05:35:50.332Z,102717.44
2023-02-06T05:38:52.385Z,102719.78
2023-02-06T05:41:54.741Z,102723.94
2023-02-06T05:44:57.175Z,102719.03
2023-02-06T05:47:59.378Z,102726.84
2023-02-06T05:51:02.706Z,102731.63
2023-02-06T05:54:07.900Z,102734.34
2023-02-06T05:57:10.861Z,102727.38
2023-02-06T06:00:13.849Z,102716.47
2023-02-06T06:03:19.267Z,102720.81
2023-02-06T06:06:21.432Z,102728.44
2023-02-06T06:09:24.596Z,102721.53
2023-02-06T06:12:26.778Z,102723.41
2023-02-06T06:15:30.226Z,102719.13
2023-02-06T06:18:33.104Z,102719.69
2023-02-06T06:21:35.969Z,102720.09
2023-02-06T06:24:41.210Z,102711.56
2023-02-06T06:27:43.822Z,102713.28
2023-02-06T06:30:48.413Z,102711.38
2023-02-06T06:33:51.268Z,102708.88
2023-02-06T06:36:53.625Z,102705.50
2023-02-06T06:39:57.717Z,102714.97
2023-02-06T06:43:02.556Z,102703.16
2023-02-06T06:46:05.481Z,102719.34
2023-02-06T06:49:20.963Z,102708.41
2023-02-06T06:52:26.790Z,102721.69
2023-02-06T06:55:29.339Z,102721.78
2023-02-06T06:58:32.314Z,102714.00
2023-02-06T07:01:43.379Z,102719.78
2023-02-06T07:04:58.326Z,102717.25
2023-02-06T07:08:04.181Z,102720.47
2023-02-06T07:11:15.327Z,102715.41
2023-02-06T07:15:27.811Z,102718.84
2023-02-06T07:26:30.346Z,102722.97
2023-02-06T07:29:37.653Z,102735.00
2023-02-06T07:32:55.630Z,102720.53
2023-02-06T07:36:11.251Z,102730.69
2023-02-06T07:39:16.791Z,102727.09
2023-02-06T07:42:24.712Z,102739.72
2023-02-06T07:45:27.511Z,102722.78
2023-02-06T07:48:32.852Z,102711.72
2023-02-06T07:52:10.102Z,102721.72
2023-02-06T07:55:34.660Z,102706.44
2023-02-06T07:58:52.783Z,102709.59
2023-02-06T08:10:15.856Z,102738.66
2023-02-06T08:13:47.709Z,102729.94
2023-02-06T08:17:27.114Z,102724.41
2023-02-06T08:20:44.550Z,102727.72
2023-02-06T08:24:13.573Z,102737.59
2023-02-06T08:27:20.737Z,102737.69
2023-02-06T08:30:43.541Z,102731.50
2023-02-06T08:33:53.393Z,102730.00
2023-02-06T08:36:59.005Z,102737.69
2023-02-06T08:40:01.909Z,102728.06
2023-02-06T08:43:11.808Z,102697.22
2023-02-06T08:46:37.296Z,102722.53
2023-02-06T08:49:53.162Z,102704.47
2023-02-06T08:53:04.336Z,102673.22
2023-02-06T08:56:15.482Z,102701.47
2023-02-06T08:59:38.617Z,102723.81
2023-02-06T09:08:25.658Z,102695.00
2023-02-06T09:15:58.014Z,102712.25
2023-02-06T09:19:39.534Z,102719.31
2023-02-06T09:26:25.475Z,102723.03
2023-02-06T09:29:39.518Z,102697.56
2023-02-06T09:33:05.699Z,102717.97
2023-02-06T09:36:18.692Z,102703.44
2023-02-06T09:39:28.446Z,102723.31
2023-02-06T09:42:43.603Z,102713.94
2023-02-06T09:45:56.244Z,102717.25
2023-02-06T09:49:26.571Z,102688.66
2023-02-06T09:52:52.403Z,102703.53
2023-02-06T09:56:36.975Z,102705.63
2023-02-06T10:00:44.109Z,102694.31
2023-02-06T10:06:12.151Z,102701.97
2023-02-06T10:09:11.564Z,102696.19
2023-02-06T10:14:32.148Z,102693.81
2023-02-06T10:22:14.867Z,102655.13
2023-02-06T10:25:54.753Z,102675.56
2023-02-06T10:29:39.347Z,102666.88
2023-02-06T10:42:27.325Z,102671.81
2023-02-06T10:46:01.632Z,102629.94
2023-02-06T10:50:22.285Z,102652.78
2023-02-06T10:53:51.734Z,102651.41
2023-02-06T10:58:01.976Z,102626.63
2023-02-06T11:29:41.096Z,102618.50
2023-02-06T11:33:40.921Z,102616.94
2023-02-06T11:36:59.609Z,102613.56
2023-02-06T11:40:37.588Z,102611.47
2023-02-06T11:43:52.321Z,102601.22
2023-02-06T11:46:57.708Z,102581.44
2023-02-06T11:50:36.817Z,102593.44
2023-02-06T11:53:58.448Z,102584.63
2023-02-06T12:02:14.023Z,102551.63
2023-02-06T12:05:10.168Z,102571.41
2023-02-06T12:08:23.261Z,102571.41
2023-02-06T12:23:07.172Z,102543.63
2023-02-06T12:25:10.448Z,102563.91
2023-02-06T12:33:34.999Z,102543.53
2023-02-06T12:37:22.166Z,102528.06
2023-02-06T12:40:43.590Z,102548.56
2023-02-06T12:44:00.701Z,102507.69
2023-02-06T12:47:28.086Z,102549.78
2023-02-06T12:51:11.831Z,102527.69
2023-02-06T12:54:29.706Z,102529.38
2023-02-06T12:57:34.936Z,102531.19
2023-02-06T13:01:01.167Z,102539.31
2023-02-06T13:04:18.536Z,102523.25
2023-02-06T13:07:29.715Z,102539.50
2023-02-06T13:10:35.002Z,102527.88
2023-02-06T13:13:41.047Z,102542.16
2023-02-06T13:16:59.258Z,102530.28
2023-02-06T13:20:09.432Z,102559.28
2023-02-06T13:27:01.109Z,102536.41
2023-02-06T13:30:45.452Z,102543.13
2023-02-06T13:33:54.119Z,102539.31
2023-02-06T13:37:37.495Z,102539.44
2023-02-06T13:40:44.246Z,102535.97
2023-02-06T13:43:56.772Z,102544.19
2023-02-06T13:47:21.520Z,102550.97
2023-02-06T13:50:49.528Z,102544.56
2023-02-06T13:54:29.593Z,102551.53
2023-02-06T13:57:54.946Z,102554.41
2023-02-06T14:00:59.067Z,102557.94
2023-02-06T14:04:02.270Z,102557.44
2023-02-06T14:07:32.511Z,102568.25
2023-02-06T14:11:20.645Z,102564.41
2023-02-06T14:14:55.366Z,102571.16
2023-02-06T14:18:25.693Z,102573.91
2023-02-06T14:21:54.757Z,102570.94
2023-02-06T14:25:23.840Z,102573.16
2023-02-06T14:29:11.068Z,102573.78
2023-02-06T14:32:40.142Z,102577.06
2023-02-06T14:36:22.277Z,102577.13
2023-02-06T14:39:43.565Z,102582.22
2023-02-06T14:42:46.971Z,102580.56
2023-02-06T14:46:07.989Z,102571.91
2023-02-06T14:49:18.982Z,102571.09
2023-02-06T14:52:27.517Z,102579.19
2023-02-06T14:55:34.134Z,102578.22
2023-02-06T14:58:42.363Z,102576.22
2023-02-06T15:01:50.541Z,102575.09
2023-02-06T15:04:54.651Z,102571.97
2023-02-06T15:07:59.750Z,102586.72
2023-02-06T15:11:08.171Z,102581.19
2023-02-06T15:14:24.712Z,102601.53
2023-02-06T15:17:27.038Z,102600.13
2023-02-06T15:20:40.420Z,102599.47
2023-02-06T15:24:13.496Z,102598.44
2023-02-06T15:27:43.421Z,102594.41
2023-02-06T15:30:55.596Z,102597.06
2023-02-06T15:34:00.951Z,102566.69
2023-02-06T15:37:20.834Z,102566.84
2023-02-06T15:40:32.561Z,102598.16
2023-02-06T15:43:35.741Z,102614.44
2023-02-06T15:46:39.159Z,102606.09
2023-02-06T15:49:47.464Z,102607.78
2023-02-06T15:52:51.320Z,102622.25
2023-02-06T15:55:56.785Z,102613.28
2023-02-06T15:59:05.428Z,102610.97
2023-02-06T16:02:08.525Z,102625.28
2023-02-06T16:05:23.477Z,102634.41
2023-02-06T16:08:34.632Z,102633.53
2023-02-06T16:11:51.333Z,102645.78
2023-02-06T16:14:59.495Z,102657.91
2023-02-06T16:18:24.004Z,102655.34
2023-02-06T16:21:35.855Z,102648.66
2023-02-06T16:24:39.404Z,102655.53
2023-02-06T16:27:46.530Z,102658.88
2023-02-06T16:31:01.380Z,102650.50
2023-02-06T16:34:38.173Z,102667.66
2023-02-06T16:37:40.416Z,102663.84
2023-02-06T16:40:42.879Z,102655.66
2023-02-06T16:43:45.644Z,102661.78
2023-02-06T16:46:48.379Z,102668.63
2023-02-06T16:49:52.936Z,102670.22
2023-02-06T16:53:01.480Z,102657.63
2023-02-06T16:56:05.518Z,102670.38
2023-02-06T16:59:09.450Z,102664.38
2023-02-06T17:02:13.649Z,102667.81
2023-02-06T17:05:19.293Z,102668.72
2023-02-06T17:08:25.031Z,102672.56
2023-02-06T17:11:28.258Z,102661.41
2023-02-06T17:14:33.370Z,102674.81
2023-02-06T17:17:35.746Z,102665.41
2023-02-06T17:20:40.458Z,102673.34
2023-02-06T17:23:44.245Z,102674.28
2023-02-06T17:26:46.641Z,102674.25
2023-02-06T17:29:50.106Z,102674.19
2023-02-06T17:32:54.182Z,102670.47
2023-02-06T17:35:57.071Z,102668.81
2023-02-06T17:39:00.465Z,102669.97
2023-02-06T17:42:02.907Z,102673.53
2023-02-06T17:45:05.470Z,102679.47
2023-02-06T17:48:08.581Z,102676.81
2023-02-06T17:51:11.524Z,102683.81
2023-02-06T17:54:14.214Z,102675.50
2023-02-06T17:57:16.328Z,102670.47
2023-02-06T18:00:20.846Z,102681.47
2023-02-06T18:03:23.211Z,102683.00
2023-02-06T18:06:26.926Z,102696.84
2023-02-06T18:09:29.244Z,102691.84
2023-02-06T18:12:31.464Z,102702.13
2023-02-06T18:15:33.476Z,102702.13
2023-02-06T18:18:37.058Z,102701.47
2023-02-06T18:21:39.712Z,102698.03
2023-02-06T18:24:43.005Z,102689.63
2023-02-06T18:27:48.324Z,102703.09
2023-02-06T18:30:50.957Z,102703.13
2023-02-06T18:33:55.284Z,102704.03
2023-02-06T18:36:58.358Z,102703.38
2023-02-06T18:40:01.256Z,102701.75
2023-02-06T18:43:07.698Z,102701.75
2023-02-06T18:46:10.022Z,102700.84
2023-02-06T18:49:12.708Z,102707.72
2023-02-06T18:52:16.381Z,102695.97
2023-02-06T18:55:19.625Z,102709.63
2023-02-06T18:58:22.386Z,102710.56
2023-02-06T19:01:26.317Z,102719.94
2023-02-06T19:04:28.635Z,102719.16
2023-02-06T19:07:31.356Z,102727.00
2023-02-06T19:10:34.054Z,102729.72
2023-02-06T19:13:37.864Z,102715.88
2023-02-06T19:16:44.706Z,102713.44
2023-02-06T19:19:47.178Z,102734.78
2023-02-06T19:22:53.670Z,102737.59
2023-02-06T19:25:56.857Z,102750.44
2023-02-06T19:29:02.789Z,102748.78
2023-02-06T19:32:06.749Z,102755.88
2023-02-06T19:35:09.358Z,102756.94
2023-02-06T19:38:12.023Z,102764.66
2023-02-06T19:41:19.797Z,102772.16
2023-02-06T19:44:22.338Z,102762.00
2023-02-06T19:47:25.853Z,102780.00
2023-02-06T19:50:29.291Z,102776.66
2023-02-06T19:53:34.988Z,102782.69
2023-02-06T19:56:44.099Z,102786.06
2023-02-06T19:59:47.043Z,102787.97
2023-02-06T20:02:49.816Z,102792.25
2023-02-06T20:05:52.536Z,102791.31
2023-02-06T20:08:57.654Z,102791.41
2023-02-06T20:12:01.295Z,102790.75
2023-02-06T20:15:04.482Z,102788.84
2023-02-06T20:18:07.655Z,102802.78
2023-02-06T20:21:33.395Z,102812.91
2023-02-06T20:24:37.450Z,102807.78
2023-02-06T20:27:40.772Z,102800.91
2023-02-06T20:30:53.846Z,102804.53
2023-02-06T20:33:57.687Z,102811.06
2023-02-06T20:37:00.695Z,102808.66
2023-02-06T20:40:04.900Z,102814.81
2023-02-06T20:43:07.804Z,102819.09
2023-02-06T20:46:11.340Z,102825.97
2023-02-06T20:49:22.568Z,102826.09
2023-02-06T20:52:26.019Z,102808.38
2023-02-06T20:55:29.401Z,102823.53
2023-02-06T20:58:31.978Z,102825.97
2023-02-06T21:01:35.081Z,102828.84
2023-02-06T21:04:37.778Z,102829.72
2023-02-06T21:07:40.847Z,102839.13
2023-02-06T21:10:49.933Z,102835.63
2023-02-06T21:13:52.235Z,102843.38
2023-02-06T21:16:54.321Z,102850.25
2023-02-06T21:19:56.765Z,102856.50
2023-02-06T21:23:00.157Z,102856.97
2023-02-06T21:26:03.898Z,102855.41
2023-02-06T21:29:07.828Z,102849.78
2023-02-06T21:32:13.888Z,102847.00
2023-02-06T21:35:16.951Z,102839.41
2023-02-06T21:38:19.935Z,102846.72
2023-02-06T21:41:22.513Z,102835.91
2023-02-06T21:44:26.856Z,102833.38
2023-02-06T21:47:29.039Z,102835.06
2023-02-06T21:50:32.405Z,102840.22
2023-02-06T21:53:34.463Z,102844.06
2023-02-06T21:56:38.401Z,102844.06
2023-02-06T21:59:41.097Z,102845.09
2023-02-06T22:02:43.939Z,102847.06
2023-02-06T22:05:46.473Z,102844.31
2023-02-06T22:08:51.983Z,102851.06
2023-02-06T22:11:54.486Z,102852.06
2023-02-06T22:14:58.182Z,102849.50
2023-02-06T22:18:00.641Z,102852.06
2023-02-06T22:21:11.262Z,102863.19
2023-02-06T22:24:13.942Z,102865.75
2023-02-06T22:27:17.212Z,102865.50
2023-02-06T22:30:20.176Z,102863.94
2023-02-06T22:33:22.524Z,102857.94
2023-02-06T22:36:27.371Z,102865.09
2023-02-06T22:39:29.907Z,102859.75
2023-02-06T22:42:34.823Z,102853.84
2023-02-06T22:45:37.891Z,102841.94
2023-02-06T22:48:40.794Z,102865.00
2023-02-06T22:51:43.356Z,102858.00
2023-02-06T22:54:47.917Z,102863.81
2023-02-06T22:57:51.284Z,102867.47
2023-02-06T23:01:02.961Z,102861.41
2023-02-06T23:04:08.039Z,102874.03
2023-02-06T23:07:10.503Z,102868.97
2023-02-06T23:10:13.096Z,102874.84
2023-02-06T23:13:15.404Z,102874.97
2023-02-06T23:16:17.950Z,102873.44
2023-02-06T23:19:24.715Z,102860.91
2023-02-06T23:22:27.485Z,102872.88
2023-02-06T23:25:31.003Z,102871.38
2023-02-06T23:28:36.536Z,102887.50
2023-02-06T23:31:39.030Z,102882.47
2023-02-06T23:34:42.464Z,102879.97
2023-02-06T23:37:44.905Z,102876.47
2023-02-06T23:40:48.101Z,102878.91
2023-02-06T23:43:59.880Z,102876.56
2023-02-06T23:47:06.485Z,102872.38
2023-02-06T23:50:09.376Z,102878.91
2023-02-06T23:53:11.667Z,102865.41
2023-02-06T23:56:26.467Z,102870.50
2023-02-06T23:59:28.650Z,102868.91
